sensor_id;sensor_type;location;lat;lon;timestamp;P1;durP1;ratioP1;P2;durP2;ratioP2
48743;SDS011;34538;48.836;9.174;2022-08-21T00:00:10;7.10;;;2.40;;
48743;SDS011;34538;48.836;9.174;2022-08-21T00:02:44;6.32;;;2.42;;
48743;SDS011;34538;48.836;9.174;2022-08-21T00:05:12;5.60;;;2.20;;
48743;SDS011;34538;48.836;9.174;2022-08-21T00:07:38;4.93;;;2.42;;
48743;SDS011;34538;48.836;9.174;2022-08-21T00:10:04;5.05;;;2.70;;
48743;SDS011;34538;48.836;9.174;2022-08-21T00:12:31;4.63;;;2.22;;
48743;SDS011;34538;48.836;9.174;2022-08-21T00:14:57;4.95;;;2.22;;
48743;SDS011;34538;48.836;9.174;2022-08-21T00:17:23;4.78;;;2.28;;
48743;SDS011;34538;48.836;9.174;2022-08-21T00:19:49;5.88;;;2.55;;
48743;SDS011;34538;48.836;9.174;2022-08-21T00:22:14;6.65;;;2.42;;
48743;SDS011;34538;48.836;9.174;2022-08-21T00:24:40;4.72;;;3.00;;
48743;SDS011;34538;48.836;9.174;2022-08-21T00:27:06;3.85;;;2.33;;
48743;SDS011;34538;48.836;9.174;2022-08-21T00:29:32;7.10;;;3.10;;
48743;SDS011;34538;48.836;9.174;2022-08-21T00:31:57;4.95;;;2.63;;
48743;SDS011;34538;48.836;9.174;2022-08-21T00:34:24;5.32;;;2.60;;
48743;SDS011;34538;48.836;9.174;2022-08-21T00:36:49;6.55;;;3.30;;
48743;SDS011;34538;48.836;9.174;2022-08-21T00:39:15;4.90;;;2.60;;
48743;SDS011;34538;48.836;9.174;2022-08-21T00:41:41;6.50;;;2.67;;
48743;SDS011;34538;48.836;9.174;2022-08-21T00:44:08;9.45;;;2.70;;
48743;SDS011;34538;48.836;9.174;2022-08-21T00:46:38;7.72;;;2.83;;
48743;SDS011;34538;48.836;9.174;2022-08-21T00:49:04;5.15;;;2.70;;
48743;SDS011;34538;48.836;9.174;2022-08-21T00:51:39;5.18;;;2.50;;
48743;SDS011;34538;48.836;9.174;2022-08-21T00:54:10;5.13;;;2.50;;
48743;SDS011;34538;48.836;9.174;2022-08-21T00:56:37;4.97;;;2.30;;
48743;SDS011;34538;48.836;9.174;2022-08-21T00:59:03;5.38;;;2.53;;
48743;SDS011;34538;48.836;9.174;2022-08-21T01:01:29;5.88;;;2.58;;
48743;SDS011;34538;48.836;9.174;2022-08-21T01:03:55;4.88;;;2.47;;
48743;SDS011;34538;48.836;9.174;2022-08-21T01:06:20;3.85;;;2.10;;
48743;SDS011;34538;48.836;9.174;2022-08-21T01:08:46;5.18;;;2.78;;
48743;SDS011;34538;48.836;9.174;2022-08-21T01:11:13;4.30;;;2.67;;
48743;SDS011;34538;48.836;9.174;2022-08-21T01:13:39;6.65;;;2.83;;
48743;SDS011;34538;48.836;9.174;2022-08-21T01:16:09;3.85;;;2.30;;
48743;SDS011;34538;48.836;9.174;2022-08-21T01:18:36;5.97;;;2.85;;
48743;SDS011;34538;48.836;9.174;2022-08-21T01:23:32;4.35;;;3.33;;
48743;SDS011;34538;48.836;9.174;2022-08-21T01:25:58;5.07;;;2.92;;
48743;SDS011;34538;48.836;9.174;2022-08-21T01:28:24;4.35;;;2.60;;
48743;SDS011;34538;48.836;9.174;2022-08-21T01:30:51;4.72;;;2.55;;
48743;SDS011;34538;48.836;9.174;2022-08-21T01:33:19;5.00;;;3.10;;
48743;SDS011;34538;48.836;9.174;2022-08-21T01:35:46;6.53;;;2.83;;
48743;SDS011;34538;48.836;9.174;2022-08-21T01:38:12;3.75;;;2.50;;
48743;SDS011;34538;48.836;9.174;2022-08-21T01:40:38;5.05;;;2.50;;
48743;SDS011;34538;48.836;9.174;2022-08-21T01:43:04;6.85;;;2.53;;
48743;SDS011;34538;48.836;9.174;2022-08-21T01:45:30;4.85;;;2.70;;
48743;SDS011;34538;48.836;9.174;2022-08-21T01:47:55;7.28;;;3.22;;
48743;SDS011;34538;48.836;9.174;2022-08-21T01:50:21;5.00;;;3.15;;
48743;SDS011;34538;48.836;9.174;2022-08-21T01:52:47;7.05;;;3.03;;
48743;SDS011;34538;48.836;9.174;2022-08-21T01:55:16;5.32;;;3.30;;
48743;SDS011;34538;48.836;9.174;2022-08-21T01:57:44;4.78;;;3.00;;
48743;SDS011;34538;48.836;9.174;2022-08-21T02:00:11;4.28;;;2.55;;
48743;SDS011;34538;48.836;9.174;2022-08-21T02:02:40;8.15;;;2.78;;
48743;SDS011;34538;48.836;9.174;2022-08-21T02:05:06;5.95;;;2.67;;
48743;SDS011;34538;48.836;9.174;2022-08-21T02:07:36;5.85;;;3.00;;
48743;SDS011;34538;48.836;9.174;2022-08-21T02:10:07;4.53;;;2.97;;
48743;SDS011;34538;48.836;9.174;2022-08-21T02:12:34;7.60;;;2.78;;
48743;SDS011;34538;48.836;9.174;2022-08-21T02:15:00;4.47;;;2.90;;
48743;SDS011;34538;48.836;9.174;2022-08-21T02:17:27;6.82;;;2.83;;
48743;SDS011;34538;48.836;9.174;2022-08-21T02:20:01;7.10;;;2.80;;
48743;SDS011;34538;48.836;9.174;2022-08-21T02:22:28;4.60;;;2.78;;
48743;SDS011;34538;48.836;9.174;2022-08-21T02:24:54;5.15;;;3.00;;
48743;SDS011;34538;48.836;9.174;2022-08-21T02:27:19;9.85;;;3.38;;
48743;SDS011;34538;48.836;9.174;2022-08-21T02:29:47;5.93;;;2.83;;
48743;SDS011;34538;48.836;9.174;2022-08-21T02:32:12;6.28;;;3.08;;
48743;SDS011;34538;48.836;9.174;2022-08-21T02:34:39;4.90;;;2.90;;
48743;SDS011;34538;48.836;9.174;2022-08-21T02:37:04;7.07;;;2.95;;
48743;SDS011;34538;48.836;9.174;2022-08-21T02:39:30;5.57;;;2.55;;
48743;SDS011;34538;48.836;9.174;2022-08-21T02:41:55;7.05;;;3.03;;
48743;SDS011;34538;48.836;9.174;2022-08-21T02:44:21;5.20;;;2.92;;
48743;SDS011;34538;48.836;9.174;2022-08-21T02:46:47;5.90;;;2.95;;
48743;SDS011;34538;48.836;9.174;2022-08-21T02:49:12;4.63;;;2.80;;
48743;SDS011;34538;48.836;9.174;2022-08-21T02:51:38;4.72;;;2.92;;
48743;SDS011;34538;48.836;9.174;2022-08-21T02:54:03;4.43;;;2.80;;
48743;SDS011;34538;48.836;9.174;2022-08-21T02:56:29;6.15;;;3.67;;
48743;SDS011;34538;48.836;9.174;2022-08-21T02:58:55;6.55;;;3.50;;
48743;SDS011;34538;48.836;9.174;2022-08-21T03:01:20;4.35;;;3.22;;
48743;SDS011;34538;48.836;9.174;2022-08-21T03:03:46;5.07;;;3.08;;
48743;SDS011;34538;48.836;9.174;2022-08-21T03:06:15;5.57;;;3.40;;
48743;SDS011;34538;48.836;9.174;2022-08-21T03:08:42;5.20;;;3.00;;
48743;SDS011;34538;48.836;9.174;2022-08-21T03:11:09;5.18;;;2.88;;
48743;SDS011;34538;48.836;9.174;2022-08-21T03:13:35;5.20;;;3.00;;
48743;SDS011;34538;48.836;9.174;2022-08-21T03:16:02;3.58;;;2.70;;
48743;SDS011;34538;48.836;9.174;2022-08-21T03:18:28;7.05;;;2.97;;
48743;SDS011;34538;48.836;9.174;2022-08-21T03:20:53;6.72;;;3.05;;
48743;SDS011;34538;48.836;9.174;2022-08-21T03:23:19;4.18;;;2.53;;
48743;SDS011;34538;48.836;9.174;2022-08-21T03:25:45;3.78;;;2.75;;
48743;SDS011;34538;48.836;9.174;2022-08-21T03:28:13;5.97;;;3.03;;
48743;SDS011;34538;48.836;9.174;2022-08-21T03:30:41;5.80;;;3.08;;
48743;SDS011;34538;48.836;9.174;2022-08-21T03:33:09;6.15;;;2.67;;
48743;SDS011;34538;48.836;9.174;2022-08-21T03:35:35;3.88;;;2.65;;
48743;SDS011;34538;48.836;9.174;2022-08-21T03:38:00;4.72;;;3.35;;
48743;SDS011;34538;48.836;9.174;2022-08-21T03:40:26;5.22;;;3.45;;
48743;SDS011;34538;48.836;9.174;2022-08-21T03:42:52;6.00;;;3.08;;
48743;SDS011;34538;48.836;9.174;2022-08-21T03:45:18;7.07;;;3.30;;
48743;SDS011;34538;48.836;9.174;2022-08-21T03:48:06;7.25;;;3.13;;
48743;SDS011;34538;48.836;9.174;2022-08-21T03:50:32;4.70;;;3.10;;
48743;SDS011;34538;48.836;9.174;2022-08-21T03:53:00;4.97;;;2.72;;
48743;SDS011;34538;48.836;9.174;2022-08-21T03:55:26;5.70;;;3.33;;
48743;SDS011;34538;48.836;9.174;2022-08-21T03:57:53;7.47;;;3.13;;
48743;SDS011;34538;48.836;9.174;2022-08-21T04:00:19;4.43;;;2.60;;
48743;SDS011;34538;48.836;9.174;2022-08-21T04:02:45;7.35;;;3.38;;
48743;SDS011;34538;48.836;9.174;2022-08-21T04:05:12;5.53;;;3.83;;
48743;SDS011;34538;48.836;9.174;2022-08-21T04:07:39;5.95;;;3.33;;
48743;SDS011;34538;48.836;9.174;2022-08-21T04:10:05;7.20;;;3.08;;
48743;SDS011;34538;48.836;9.174;2022-08-21T04:12:32;4.82;;;3.33;;
48743;SDS011;34538;48.836;9.174;2022-08-21T04:14:58;5.25;;;3.20;;
48743;SDS011;34538;48.836;9.174;2022-08-21T04:17:23;5.10;;;3.33;;
48743;SDS011;34538;48.836;9.174;2022-08-21T04:19:49;7.03;;;3.55;;
48743;SDS011;34538;48.836;9.174;2022-08-21T04:22:15;6.60;;;3.55;;
48743;SDS011;34538;48.836;9.174;2022-08-21T04:24:41;6.47;;;3.60;;
48743;SDS011;34538;48.836;9.174;2022-08-21T04:27:07;7.63;;;3.42;;
48743;SDS011;34538;48.836;9.174;2022-08-21T04:29:33;5.03;;;3.30;;
48743;SDS011;34538;48.836;9.174;2022-08-21T04:31:58;7.18;;;3.70;;
48743;SDS011;34538;48.836;9.174;2022-08-21T04:34:24;9.80;;;3.92;;
48743;SDS011;34538;48.836;9.174;2022-08-21T04:36:50;7.90;;;4.10;;
48743;SDS011;34538;48.836;9.174;2022-08-21T04:39:15;5.90;;;3.90;;
48743;SDS011;34538;48.836;9.174;2022-08-21T04:41:41;6.28;;;3.78;;
48743;SDS011;34538;48.836;9.174;2022-08-21T04:44:07;5.40;;;3.40;;
48743;SDS011;34538;48.836;9.174;2022-08-21T04:46:33;7.38;;;3.33;;
48743;SDS011;34538;48.836;9.174;2022-08-21T04:48:59;6.38;;;3.30;;
48743;SDS011;34538;48.836;9.174;2022-08-21T04:51:25;6.20;;;3.40;;
48743;SDS011;34538;48.836;9.174;2022-08-21T04:53:56;6.43;;;3.40;;
48743;SDS011;34538;48.836;9.174;2022-08-21T04:56:34;5.25;;;3.33;;
48743;SDS011;34538;48.836;9.174;2022-08-21T04:59:04;8.85;;;3.85;;
48743;SDS011;34538;48.836;9.174;2022-08-21T05:02:00;7.40;;;3.78;;
48743;SDS011;34538;48.836;9.174;2022-08-21T05:04:52;5.90;;;3.50;;
48743;SDS011;34538;48.836;9.174;2022-08-21T05:07:21;7.20;;;3.85;;
48743;SDS011;34538;48.836;9.174;2022-08-21T05:10:15;7.63;;;3.50;;
48743;SDS011;34538;48.836;9.174;2022-08-21T05:12:41;7.72;;;4.18;;
48743;SDS011;34538;48.836;9.174;2022-08-21T05:15:09;9.85;;;4.07;;
48743;SDS011;34538;48.836;9.174;2022-08-21T05:17:39;9.65;;;4.00;;
48743;SDS011;34538;48.836;9.174;2022-08-21T05:20:06;6.93;;;3.47;;
48743;SDS011;34538;48.836;9.174;2022-08-21T05:22:33;9.05;;;3.75;;
48743;SDS011;34538;48.836;9.174;2022-08-21T05:24:59;7.53;;;4.10;;
48743;SDS011;34538;48.836;9.174;2022-08-21T05:27:49;11.07;;;4.05;;
48743;SDS011;34538;48.836;9.174;2022-08-21T05:30:15;6.32;;;3.83;;
48743;SDS011;34538;48.836;9.174;2022-08-21T05:32:41;6.15;;;3.35;;
48743;SDS011;34538;48.836;9.174;2022-08-21T05:35:07;6.13;;;3.45;;
48743;SDS011;34538;48.836;9.174;2022-08-21T05:37:33;6.10;;;3.95;;
48743;SDS011;34538;48.836;9.174;2022-08-21T05:39:59;10.00;;;3.75;;
48743;SDS011;34538;48.836;9.174;2022-08-21T05:42:25;6.05;;;3.58;;
48743;SDS011;34538;48.836;9.174;2022-08-21T05:44:51;7.00;;;3.83;;
48743;SDS011;34538;48.836;9.174;2022-08-21T05:47:16;5.47;;;3.55;;
48743;SDS011;34538;48.836;9.174;2022-08-21T05:49:42;5.60;;;3.20;;
48743;SDS011;34538;48.836;9.174;2022-08-21T05:52:08;6.40;;;2.80;;
48743;SDS011;34538;48.836;9.174;2022-08-21T05:54:36;6.93;;;3.38;;
48743;SDS011;34538;48.836;9.174;2022-08-21T05:57:02;4.88;;;2.80;;
48743;SDS011;34538;48.836;9.174;2022-08-21T05:59:28;7.88;;;2.90;;
48743;SDS011;34538;48.836;9.174;2022-08-21T06:01:54;5.22;;;3.20;;
48743;SDS011;34538;48.836;9.174;2022-08-21T06:04:19;3.70;;;2.38;;
48743;SDS011;34538;48.836;9.174;2022-08-21T06:06:45;4.82;;;2.75;;
48743;SDS011;34538;48.836;9.174;2022-08-21T06:09:12;6.15;;;2.40;;
48743;SDS011;34538;48.836;9.174;2022-08-21T06:11:38;5.93;;;3.17;;
48743;SDS011;34538;48.836;9.174;2022-08-21T06:14:03;6.72;;;2.58;;
48743;SDS011;34538;48.836;9.174;2022-08-21T06:16:31;5.70;;;2.72;;
48743;SDS011;34538;48.836;9.174;2022-08-21T06:18:57;4.03;;;2.50;;
48743;SDS011;34538;48.836;9.174;2022-08-21T06:21:23;4.25;;;2.50;;
48743;SDS011;34538;48.836;9.174;2022-08-21T06:23:48;5.35;;;2.60;;
48743;SDS011;34538;48.836;9.174;2022-08-21T06:26:14;6.60;;;2.90;;
48743;SDS011;34538;48.836;9.174;2022-08-21T06:28:40;4.25;;;2.45;;
48743;SDS011;34538;48.836;9.174;2022-08-21T06:31:17;4.47;;;2.53;;
48743;SDS011;34538;48.836;9.174;2022-08-21T06:33:44;5.30;;;2.67;;
48743;SDS011;34538;48.836;9.174;2022-08-21T06:36:10;4.45;;;2.90;;
48743;SDS011;34538;48.836;9.174;2022-08-21T06:38:37;5.20;;;2.90;;
48743;SDS011;34538;48.836;9.174;2022-08-21T06:41:03;4.63;;;3.03;;
48743;SDS011;34538;48.836;9.174;2022-08-21T06:43:29;7.43;;;2.95;;
48743;SDS011;34538;48.836;9.174;2022-08-21T06:45:55;6.63;;;2.80;;
48743;SDS011;34538;48.836;9.174;2022-08-21T06:48:21;5.57;;;2.70;;
48743;SDS011;34538;48.836;9.174;2022-08-21T06:50:47;4.45;;;2.60;;
48743;SDS011;34538;48.836;9.174;2022-08-21T06:53:14;4.88;;;2.60;;
48743;SDS011;34538;48.836;9.174;2022-08-21T06:55:42;3.95;;;2.30;;
48743;SDS011;34538;48.836;9.174;2022-08-21T06:58:09;6.60;;;2.67;;
48743;SDS011;34538;48.836;9.174;2022-08-21T07:00:37;6.05;;;3.05;;
48743;SDS011;34538;48.836;9.174;2022-08-21T07:03:04;7.35;;;2.97;;
48743;SDS011;34538;48.836;9.174;2022-08-21T07:05:30;4.85;;;2.70;;
48743;SDS011;34538;48.836;9.174;2022-08-21T07:07:56;4.75;;;2.50;;
48743;SDS011;34538;48.836;9.174;2022-08-21T07:10:23;6.93;;;3.00;;
48743;SDS011;34538;48.836;9.174;2022-08-21T07:12:50;6.97;;;2.55;;
48743;SDS011;34538;48.836;9.174;2022-08-21T07:15:18;6.30;;;2.88;;
48743;SDS011;34538;48.836;9.174;2022-08-21T07:17:44;5.15;;;2.30;;
48743;SDS011;34538;48.836;9.174;2022-08-21T07:20:10;5.80;;;2.42;;
48743;SDS011;34538;48.836;9.174;2022-08-21T07:22:36;5.60;;;2.97;;
48743;SDS011;34538;48.836;9.174;2022-08-21T07:25:04;6.03;;;2.75;;
48743;SDS011;34538;48.836;9.174;2022-08-21T07:27:30;5.68;;;2.65;;
48743;SDS011;34538;48.836;9.174;2022-08-21T07:29:56;6.57;;;2.83;;
48743;SDS011;34538;48.836;9.174;2022-08-21T07:32:22;6.25;;;3.10;;
48743;SDS011;34538;48.836;9.174;2022-08-21T07:34:48;4.97;;;2.70;;
48743;SDS011;34538;48.836;9.174;2022-08-21T07:37:14;9.32;;;3.33;;
48743;SDS011;34538;48.836;9.174;2022-08-21T07:39:40;6.80;;;2.40;;
48743;SDS011;34538;48.836;9.174;2022-08-21T07:42:06;7.25;;;2.70;;
48743;SDS011;34538;48.836;9.174;2022-08-21T07:44:32;6.80;;;2.92;;
48743;SDS011;34538;48.836;9.174;2022-08-21T07:46:59;6.95;;;2.80;;
48743;SDS011;34538;48.836;9.174;2022-08-21T07:49:26;7.90;;;3.20;;
48743;SDS011;34538;48.836;9.174;2022-08-21T07:51:52;6.97;;;2.95;;
48743;SDS011;34538;48.836;9.174;2022-08-21T07:54:18;8.55;;;3.13;;
48743;SDS011;34538;48.836;9.174;2022-08-21T07:56:44;7.43;;;3.10;;
48743;SDS011;34538;48.836;9.174;2022-08-21T07:59:10;5.53;;;2.65;;
48743;SDS011;34538;48.836;9.174;2022-08-21T08:01:36;6.25;;;2.90;;
48743;SDS011;34538;48.836;9.174;2022-08-21T08:04:02;8.82;;;3.67;;
48743;SDS011;34538;48.836;9.174;2022-08-21T08:06:28;6.25;;;2.55;;
48743;SDS011;34538;48.836;9.174;2022-08-21T08:08:54;6.43;;;2.90;;
48743;SDS011;34538;48.836;9.174;2022-08-21T08:11:20;5.07;;;2.40;;
48743;SDS011;34538;48.836;9.174;2022-08-21T08:13:46;6.43;;;3.08;;
48743;SDS011;34538;48.836;9.174;2022-08-21T08:16:13;4.95;;;2.58;;
48743;SDS011;34538;48.836;9.174;2022-08-21T08:18:39;10.15;;;3.10;;
48743;SDS011;34538;48.836;9.174;2022-08-21T08:21:07;5.78;;;2.85;;
48743;SDS011;34538;48.836;9.174;2022-08-21T08:23:33;7.78;;;3.80;;
48743;SDS011;34538;48.836;9.174;2022-08-21T08:25:59;8.55;;;3.28;;
48743;SDS011;34538;48.836;9.174;2022-08-21T08:28:27;7.35;;;2.45;;
48743;SDS011;34538;48.836;9.174;2022-08-21T08:30:53;8.70;;;2.90;;
48743;SDS011;34538;48.836;9.174;2022-08-21T08:33:19;6.78;;;3.22;;
48743;SDS011;34538;48.836;9.174;2022-08-21T08:35:46;5.57;;;2.70;;
48743;SDS011;34538;48.836;9.174;2022-08-21T08:38:14;5.90;;;2.78;;
48743;SDS011;34538;48.836;9.174;2022-08-21T08:43:10;6.40;;;2.88;;
48743;SDS011;34538;48.836;9.174;2022-08-21T08:45:37;7.40;;;3.35;;
48743;SDS011;34538;48.836;9.174;2022-08-21T08:48:06;7.50;;;3.72;;
48743;SDS011;34538;48.836;9.174;2022-08-21T08:50:41;4.90;;;2.67;;
48743;SDS011;34538;48.836;9.174;2022-08-21T08:53:15;7.63;;;3.17;;
48743;SDS011;34538;48.836;9.174;2022-08-21T08:55:46;6.18;;;2.90;;
48743;SDS011;34538;48.836;9.174;2022-08-21T08:58:16;4.75;;;2.95;;
48743;SDS011;34538;48.836;9.174;2022-08-21T09:00:53;5.65;;;2.78;;
48743;SDS011;34538;48.836;9.174;2022-08-21T09:03:20;9.35;;;4.00;;
48743;SDS011;34538;48.836;9.174;2022-08-21T09:11:07;6.07;;;2.92;;
48743;SDS011;34538;48.836;9.174;2022-08-21T09:13:50;7.00;;;2.70;;
48743;SDS011;34538;48.836;9.174;2022-08-21T09:16:46;6.15;;;3.05;;
48743;SDS011;34538;48.836;9.174;2022-08-21T09:19:35;6.43;;;3.13;;
48743;SDS011;34538;48.836;9.174;2022-08-21T09:24:51;6.25;;;2.67;;
48743;SDS011;34538;48.836;9.174;2022-08-21T09:27:19;6.28;;;2.85;;
48743;SDS011;34538;48.836;9.174;2022-08-21T09:29:47;11.77;;;3.13;;
48743;SDS011;34538;48.836;9.174;2022-08-21T09:40:59;8.55;;;3.28;;
48743;SDS011;34538;48.836;9.174;2022-08-21T09:45:39;6.22;;;3.08;;
48743;SDS011;34538;48.836;9.174;2022-08-21T09:50:46;8.00;;;3.20;;
48743;SDS011;34538;48.836;9.174;2022-08-21T09:53:21;5.97;;;2.70;;
48743;SDS011;34538;48.836;9.174;2022-08-21T09:55:52;8.68;;;2.90;;
48743;SDS011;34538;48.836;9.174;2022-08-21T09:58:42;7.78;;;2.45;;
48743;SDS011;34538;48.836;9.174;2022-08-21T10:01:14;7.78;;;2.88;;
48743;SDS011;34538;48.836;9.174;2022-08-21T10:03:43;6.90;;;2.60;;
48743;SDS011;34538;48.836;9.174;2022-08-21T10:06:09;4.78;;;2.60;;
48743;SDS011;34538;48.836;9.174;2022-08-21T10:08:45;9.27;;;3.20;;
48743;SDS011;34538;48.836;9.174;2022-08-21T10:11:12;6.88;;;2.85;;
48743;SDS011;34538;48.836;9.174;2022-08-21T10:14:02;6.28;;;2.80;;
48743;SDS011;34538;48.836;9.174;2022-08-21T10:19:36;7.57;;;2.95;;
48743;SDS011;34538;48.836;9.174;2022-08-21T10:25:18;6.97;;;3.28;;
48743;SDS011;34538;48.836;9.174;2022-08-21T10:28:04;7.47;;;3.10;;
48743;SDS011;34538;48.836;9.174;2022-08-21T10:33:13;6.78;;;2.80;;
48743;SDS011;34538;48.836;9.174;2022-08-21T10:41:21;4.60;;;2.50;;
48743;SDS011;34538;48.836;9.174;2022-08-21T10:43:56;6.72;;;2.90;;
48743;SDS011;34538;48.836;9.174;2022-08-21T10:46:55;10.02;;;3.00;;
48743;SDS011;34538;48.836;9.174;2022-08-21T10:49:39;6.82;;;2.42;;
48743;SDS011;34538;48.836;9.174;2022-08-21T10:57:46;7.45;;;3.25;;
48743;SDS011;34538;48.836;9.174;2022-08-21T11:00:46;7.22;;;2.95;;
48743;SDS011;34538;48.836;9.174;2022-08-21T11:03:33;8.57;;;2.55;;
48743;SDS011;34538;48.836;9.174;2022-08-21T11:08:46;8.35;;;2.67;;
48743;SDS011;34538;48.836;9.174;2022-08-21T11:11:27;5.43;;;2.55;;
48743;SDS011;34538;48.836;9.174;2022-08-21T11:14:13;7.07;;;2.45;;
48743;SDS011;34538;48.836;9.174;2022-08-21T11:16:53;4.78;;;2.80;;
48743;SDS011;34538;48.836;9.174;2022-08-21T11:19:47;6.95;;;3.15;;
48743;SDS011;34538;48.836;9.174;2022-08-21T11:25:03;9.63;;;2.97;;
48743;SDS011;34538;48.836;9.174;2022-08-21T11:27:52;9.35;;;3.45;;
48743;SDS011;34538;48.836;9.174;2022-08-21T11:30:23;6.75;;;2.67;;
48743;SDS011;34538;48.836;9.174;2022-08-21T11:33:02;8.85;;;2.80;;
48743;SDS011;34538;48.836;9.174;2022-08-21T11:35:46;5.85;;;2.83;;
48743;SDS011;34538;48.836;9.174;2022-08-21T11:38:28;7.28;;;2.95;;
48743;SDS011;34538;48.836;9.174;2022-08-21T11:41:16;7.38;;;3.22;;
48743;SDS011;34538;48.836;9.174;2022-08-21T11:44:04;6.20;;;2.97;;
48743;SDS011;34538;48.836;9.174;2022-08-21T11:46:43;7.90;;;2.60;;
48743;SDS011;34538;48.836;9.174;2022-08-21T11:54:33;5.40;;;2.78;;
48743;SDS011;34538;48.836;9.174;2022-08-21T11:57:17;5.63;;;2.70;;
48743;SDS011;34538;48.836;9.174;2022-08-21T12:02:45;6.38;;;2.80;;
48743;SDS011;34538;48.836;9.174;2022-08-21T12:05:51;5.32;;;3.03;;
48743;SDS011;34538;48.836;9.174;2022-08-21T12:11:23;6.72;;;3.08;;
48743;SDS011;34538;48.836;9.174;2022-08-21T12:16:32;4.65;;;2.40;;
48743;SDS011;34538;48.836;9.174;2022-08-21T12:19:06;6.22;;;2.78;;
48743;SDS011;34538;48.836;9.174;2022-08-21T12:26:57;4.45;;;2.25;;
48743;SDS011;34538;48.836;9.174;2022-08-21T12:29:36;4.40;;;2.30;;
48743;SDS011;34538;48.836;9.174;2022-08-21T12:32:03;5.60;;;2.45;;
48743;SDS011;34538;48.836;9.174;2022-08-21T12:34:48;3.90;;;2.15;;
48743;SDS011;34538;48.836;9.174;2022-08-21T12:39:54;5.65;;;2.53;;
48743;SDS011;34538;48.836;9.174;2022-08-21T12:42:29;4.68;;;2.30;;
48743;SDS011;34538;48.836;9.174;2022-08-21T12:45:18;5.47;;;2.45;;
48743;SDS011;34538;48.836;9.174;2022-08-21T12:47:48;5.13;;;2.30;;
48743;SDS011;34538;48.836;9.174;2022-08-21T12:50:24;5.68;;;2.45;;
48743;SDS011;34538;48.836;9.174;2022-08-21T12:53:02;5.95;;;2.28;;
48743;SDS011;34538;48.836;9.174;2022-08-21T12:55:33;4.70;;;2.58;;
48743;SDS011;34538;48.836;9.174;2022-08-21T12:57:59;5.25;;;2.33;;
48743;SDS011;34538;48.836;9.174;2022-08-21T13:00:27;4.65;;;2.58;;
48743;SDS011;34538;48.836;9.174;2022-08-21T13:02:54;7.13;;;2.55;;
48743;SDS011;34538;48.836;9.174;2022-08-21T13:05:29;6.05;;;2.35;;
48743;SDS011;34538;48.836;9.174;2022-08-21T13:07:59;6.63;;;2.42;;
48743;SDS011;34538;48.836;9.174;2022-08-21T13:10:32;7.35;;;2.83;;
48743;SDS011;34538;48.836;9.174;2022-08-21T13:13:00;5.13;;;2.47;;
48743;SDS011;34538;48.836;9.174;2022-08-21T13:15:41;6.03;;;2.45;;
48743;SDS011;34538;48.836;9.174;2022-08-21T13:18:07;5.97;;;2.92;;
48743;SDS011;34538;48.836;9.174;2022-08-21T13:20:37;5.50;;;2.17;;
48743;SDS011;34538;48.836;9.174;2022-08-21T13:23:27;4.28;;;2.25;;
48743;SDS011;34538;48.836;9.174;2022-08-21T13:25:53;2.90;;;2.03;;
48743;SDS011;34538;48.836;9.174;2022-08-21T13:28:19;4.40;;;2.15;;
48743;SDS011;34538;48.836;9.174;2022-08-21T13:30:50;5.07;;;2.30;;
48743;SDS011;34538;48.836;9.174;2022-08-21T13:33:19;4.18;;;2.25;;
48743;SDS011;34538;48.836;9.174;2022-08-21T13:38:13;5.68;;;2.38;;
48743;SDS011;34538;48.836;9.174;2022-08-21T13:40:48;6.32;;;2.33;;
48743;SDS011;34538;48.836;9.174;2022-08-21T13:43:20;5.88;;;2.00;;
48743;SDS011;34538;48.836;9.174;2022-08-21T13:45:52;6.03;;;2.70;;
48743;SDS011;34538;48.836;9.174;2022-08-21T13:48:19;6.75;;;2.17;;
48743;SDS011;34538;48.836;9.174;2022-08-21T13:50:48;5.13;;;2.30;;
48743;SDS011;34538;48.836;9.174;2022-08-21T13:53:19;5.05;;;2.47;;
48743;SDS011;34538;48.836;9.174;2022-08-21T13:55:58;3.67;;;1.98;;
48743;SDS011;34538;48.836;9.174;2022-08-21T13:58:44;6.07;;;2.50;;
48743;SDS011;34538;48.836;9.174;2022-08-21T14:01:27;6.28;;;2.40;;
48743;SDS011;34538;48.836;9.174;2022-08-21T14:04:14;4.20;;;2.13;;
48743;SDS011;34538;48.836;9.174;2022-08-21T14:06:48;4.50;;;2.40;;
48743;SDS011;34538;48.836;9.174;2022-08-21T14:09:25;6.28;;;2.38;;
48743;SDS011;34538;48.836;9.174;2022-08-21T14:12:01;7.72;;;2.33;;
48743;SDS011;34538;48.836;9.174;2022-08-21T14:14:37;4.78;;;1.92;;
48743;SDS011;34538;48.836;9.174;2022-08-21T14:17:06;3.63;;;1.92;;
48743;SDS011;34538;48.836;9.174;2022-08-21T14:19:39;4.22;;;2.22;;
48743;SDS011;34538;48.836;9.174;2022-08-21T14:25:54;4.43;;;2.50;;
48743;SDS011;34538;48.836;9.174;2022-08-21T14:30:32;5.70;;;2.10;;
48743;SDS011;34538;48.836;9.174;2022-08-21T14:32:59;5.40;;;2.22;;
48743;SDS011;34538;48.836;9.174;2022-08-21T14:35:25;3.45;;;1.95;;
48743;SDS011;34538;48.836;9.174;2022-08-21T14:37:51;7.53;;;2.70;;
48743;SDS011;34538;48.836;9.174;2022-08-21T14:40:18;5.70;;;2.20;;
48743;SDS011;34538;48.836;9.174;2022-08-21T14:43:10;3.35;;;1.90;;
48743;SDS011;34538;48.836;9.174;2022-08-21T14:45:36;7.28;;;2.17;;
48743;SDS011;34538;48.836;9.174;2022-08-21T14:48:03;4.70;;;1.85;;
48743;SDS011;34538;48.836;9.174;2022-08-21T14:50:29;6.50;;;2.75;;
48743;SDS011;34538;48.836;9.174;2022-08-21T14:52:55;2.92;;;2.00;;
48743;SDS011;34538;48.836;9.174;2022-08-21T14:55:21;5.03;;;2.50;;
48743;SDS011;34538;48.836;9.174;2022-08-21T14:57:48;5.18;;;2.35;;
48743;SDS011;34538;48.836;9.174;2022-08-21T15:00:17;4.03;;;2.20;;
48743;SDS011;34538;48.836;9.174;2022-08-21T15:02:48;4.82;;;2.83;;
48743;SDS011;34538;48.836;9.174;2022-08-21T15:05:14;5.72;;;1.88;;
48743;SDS011;34538;48.836;9.174;2022-08-21T15:07:41;4.95;;;1.98;;
48743;SDS011;34538;48.836;9.174;2022-08-21T15:10:07;4.95;;;1.98;;
48743;SDS011;34538;48.836;9.174;2022-08-21T15:12:33;5.50;;;2.00;;
48743;SDS011;34538;48.836;9.174;2022-08-21T15:15:00;5.47;;;2.10;;
48743;SDS011;34538;48.836;9.174;2022-08-21T15:17:25;3.65;;;2.22;;
48743;SDS011;34538;48.836;9.174;2022-08-21T15:19:51;4.20;;;2.35;;
48743;SDS011;34538;48.836;9.174;2022-08-21T15:22:17;3.25;;;1.80;;
48743;SDS011;34538;48.836;9.174;2022-08-21T15:24:43;3.95;;;1.95;;
48743;SDS011;34538;48.836;9.174;2022-08-21T15:27:09;3.92;;;1.90;;
48743;SDS011;34538;48.836;9.174;2022-08-21T15:29:35;5.13;;;2.00;;
48743;SDS011;34538;48.836;9.174;2022-08-21T15:32:21;4.22;;;2.08;;
48743;SDS011;34538;48.836;9.174;2022-08-21T15:34:53;3.95;;;2.08;;
48743;SDS011;34538;48.836;9.174;2022-08-21T15:37:19;4.07;;;2.10;;
48743;SDS011;34538;48.836;9.174;2022-08-21T15:39:45;3.88;;;1.80;;
48743;SDS011;34538;48.836;9.174;2022-08-21T15:42:11;6.40;;;2.03;;
48743;SDS011;34538;48.836;9.174;2022-08-21T15:44:41;5.13;;;2.50;;
48743;SDS011;34538;48.836;9.174;2022-08-21T15:47:18;5.47;;;2.17;;
48743;SDS011;34538;48.836;9.174;2022-08-21T15:49:46;5.55;;;2.25;;
48743;SDS011;34538;48.836;9.174;2022-08-21T15:52:36;5.25;;;2.03;;
48743;SDS011;34538;48.836;9.174;2022-08-21T15:55:03;3.65;;;2.20;;
48743;SDS011;34538;48.836;9.174;2022-08-21T15:57:30;6.63;;;2.33;;
48743;SDS011;34538;48.836;9.174;2022-08-21T15:59:56;3.80;;;2.10;;
48743;SDS011;34538;48.836;9.174;2022-08-21T16:05:03;3.92;;;2.20;;
48743;SDS011;34538;48.836;9.174;2022-08-21T16:07:29;4.30;;;2.30;;
48743;SDS011;34538;48.836;9.174;2022-08-21T16:09:55;4.65;;;2.10;;
48743;SDS011;34538;48.836;9.174;2022-08-21T16:12:25;4.05;;;2.03;;
48743;SDS011;34538;48.836;9.174;2022-08-21T16:14:56;5.18;;;2.08;;
48743;SDS011;34538;48.836;9.174;2022-08-21T16:17:24;4.80;;;2.13;;
48743;SDS011;34538;48.836;9.174;2022-08-21T16:19:56;4.60;;;2.00;;
48743;SDS011;34538;48.836;9.174;2022-08-21T16:22:22;4.35;;;2.05;;
48743;SDS011;34538;48.836;9.174;2022-08-21T16:24:48;4.82;;;2.30;;
48743;SDS011;34538;48.836;9.174;2022-08-21T16:27:13;4.47;;;2.10;;